Daily Reports
[Refresh to Update]

Barometric Pressure Shown is Corrected to Site Pressure


Today's History

8/22/19
Time         Wind Dir   Wind Spd  Wind Gust   Humidity       Temp   Tot Rain   Barom SL   24HrRain   RainRate  MonthRain
                            mph        mph          %         F         in         in         in      in/hr         in
12:00am           225        3.0        4.0       87.0       70.6      19.49      28.73       0.00      0.000       0.64
12:10am           180        5.0        6.0       87.0       70.6      19.49      28.73       0.00      0.000       0.64
12:20am           202        6.0        7.0       85.0       71.5      19.49      28.72       0.00      0.000       0.64
12:30am           202        6.0        9.0       84.0       72.3      19.49      28.72       0.00      0.000       0.64
12:40am           225        6.0        8.0       83.0       72.8      19.49      28.72       0.00      0.000       0.64
12:50am           202        7.0       10.0       84.0       72.8      19.49      28.72       0.00      0.000       0.64
1:00am            202        8.0       11.0       84.0       72.9      19.49      28.72       0.00      0.000       0.64
1:10am            202        7.0       10.0       84.0       72.9      19.49      28.72       0.00      0.000       0.64
1:20am            225        9.0       12.0       84.0       72.8      19.49      28.71       0.00      0.000       0.64
1:30am            225        8.0       10.0       84.0       72.7      19.49      28.71       0.00      0.000       0.64
1:40am            225        6.0        8.0       85.0       72.5      19.49      28.71       0.00      0.000       0.64
1:50am            202        7.0       10.0       85.0       72.4      19.49      28.71       0.00      0.000       0.64
2:00am            225        8.0       12.0       86.0       72.4      19.49      28.71       0.00      0.000       0.64
2:10am            225       10.0       13.0       86.0       72.6      19.49      28.70       0.00      0.000       0.64
2:20am            225       12.0       17.0       85.0       72.9      19.49      28.70       0.00      0.000       0.64
2:30am            225       13.0       16.0       85.0       73.0      19.49      28.70       0.00      0.000       0.64
2:40am            225       12.0       18.0       85.0       73.1      19.49      28.70       0.00      0.000       0.64
2:50am            202       12.0       15.0       85.0       73.4      19.49      28.70       0.00      0.000       0.64
3:00am            225       10.0       12.0       85.0       73.5      19.49      28.70       0.00      0.000       0.64
3:10am            225        9.0       13.0       85.0       73.4      19.49      28.69       0.00      0.000       0.64
3:20am            225       11.0       15.0       85.0       73.3      19.49      28.70       0.00      0.000       0.64
3:30am            225        7.0        9.0       86.0       73.2      19.49      28.69       0.00      0.000       0.64
3:40am            225        8.0       11.0       86.0       72.9      19.49      28.69       0.00      0.000       0.64
3:50am            248       10.0       12.0       87.0       72.4      19.49      28.69       0.00      0.000       0.64
4:00am            248        9.0       10.0       88.0       72.1      19.49      28.69       0.00      0.000       0.64
4:10am            248        8.0       12.0       88.0       72.0      19.49      28.69       0.00      0.000       0.64
4:20am            248        8.0        9.0       88.0       71.5      19.49      28.69       0.00      0.000       0.64
4:30am            248        6.0        8.0       89.0       71.4      19.49      28.69       0.00      0.000       0.64
4:40am            248        9.0       10.0       89.0       71.4      19.49      28.68       0.00      0.000       0.64
4:50am            270        7.0        9.0       89.0       71.4      19.49      28.68       0.00      0.000       0.64
5:00am            270        4.0        6.0       89.0       70.9      19.49      28.69       0.00      0.000       0.64
5:10am            225        3.0        4.0       90.0       70.9      19.49      28.69       0.00      0.000       0.64
5:20am            180        5.0        6.0       90.0       70.8      19.49      28.70       0.00      0.000       0.64
5:30am            180        3.0        4.0       90.0       71.0      19.49      28.70       0.00      0.000       0.64
5:40am            202        2.0        3.0       90.0       71.0      19.49      28.70       0.00      0.000       0.64
5:50am            202        2.0        3.0       90.0       70.9      19.49      28.69       0.00      0.000       0.64
6:00am            315        1.0        2.0       90.0       70.3      19.49      28.69       0.00      0.000       0.64
6:10am            315        0.0        0.0       91.0       70.1      19.49      28.70       0.00      0.000       0.64
6:20am            167        3.0        3.0       92.0       70.1      19.49      28.70       0.00      0.000       0.64
6:30am            140        4.0        5.0       92.0       70.5      19.49      28.71       0.00      0.000       0.64
6:40am            169        5.0        5.0       91.0       70.7      19.49      28.72       0.00      0.000       0.64
6:50am            164        6.0        7.0       92.0       70.7      19.49      28.72       0.00      0.000       0.64
7:00am            180        8.0        9.0       92.0       70.8      19.49      28.73       0.00      0.000       0.64
7:10am            183        4.0        5.0       91.0       70.8      19.49      28.72       0.00      0.000       0.64
7:20am            173        5.0        5.0       91.0       70.9      19.49      28.72       0.00      0.000       0.64
7:30am            198        4.0        4.0       91.0       70.9      19.49      28.72       0.00      0.000       0.64
7:40am            191        3.0        3.0       92.0       70.9      19.49      28.73       0.00      0.000       0.64
7:50am            198        5.0        6.0       92.0       70.9      19.49      28.73       0.00      0.000       0.64
8:00am            161        6.0        7.0       92.0       71.0      19.49      28.74       0.00      0.000       0.64
8:10am            169        6.0        7.0       92.0       71.2      19.49      28.74       0.00      0.000       0.64
8:20am            129        9.0       19.0       90.0       70.7      19.50      28.75       0.01      0.000       0.65
8:30am            189        6.0        8.0       92.0       68.2      19.57      28.75       0.08      1.290       0.72
8:40am             96        2.0        3.0       92.0       68.0      19.66      28.72       0.17      0.200       0.81
8:50am            312        2.0        3.0       93.0       67.9      19.67      28.72       0.18      0.080       0.82
9:00am            328        2.0        3.0       93.0       67.7      19.68      28.71       0.19      0.040       0.83
9:10am            315        3.0        3.0       95.0       68.1      19.69      28.71       0.20      0.060       0.84
9:20am            306        7.0        8.0       95.0       68.4      19.69      28.70       0.20      0.050       0.84
9:30am            306        3.0        5.0       93.0       68.4      19.69      28.70       0.20      0.000       0.84
9:40am             54        3.0        3.0       94.0       68.7      19.69      28.71       0.20      0.000       0.84
9:50am            355        1.0        1.0       92.0       69.2      19.69      28.71       0.20      0.000       0.84
10:00am           263        6.0        6.0       93.0       69.4      19.69      28.72       0.20      0.000       0.84
10:10am           275        7.0        8.0       92.0       69.3      19.69      28.72       0.20      0.000       0.84
10:20am           280        7.0        9.0       91.0       69.7      19.69      28.72       0.20      0.000       0.84
10:30am           276        2.0        3.0       91.0       69.7      19.69      28.72       0.20      0.000       0.84
10:40am            17        2.0        2.0       89.0       69.8      19.69      28.72       0.20      0.000       0.84
10:50am             5        2.0        2.0       90.0       69.9      19.69      28.72       0.20      0.000       0.84
11:00am            32        2.0        3.0       87.0       70.4      19.69      28.71       0.20      0.000       0.84
11:10am            48        2.0        2.0       88.0       71.0      19.69      28.72       0.20      0.000       0.84
11:20am            38        4.0        4.0       90.0       71.5      19.69      28.72       0.20      0.000       0.84
11:30am            95        4.0        4.0       85.0       72.1      19.69      28.73       0.20      0.000       0.84
11:40am           101        7.0        8.0       86.0       72.3      19.69      28.73       0.20      0.000       0.84
11:50am           103        7.0        8.0       88.0       72.3      19.69      28.73       0.20      0.000       0.84
12:00pm            74        5.0        5.0       85.0       72.4      19.69      28.74       0.20      0.000       0.84
12:10pm           133        2.0        3.0       86.0       72.4      19.69      28.74       0.20      0.000       0.84
12:20pm           138        3.0        4.0       87.0       72.7      19.69      28.74       0.20      0.000       0.84
12:30pm           160        2.0        6.0       86.0       73.0      19.69      28.74       0.20      0.000       0.84
12:40pm           200        2.0        3.0       85.0       72.9      19.69      28.74       0.20      0.000       0.84
12:50pm           207        1.0        3.0       85.0       72.8      19.69      28.75       0.20      0.000       0.84
1:00pm            198        1.0        2.0       86.0       72.9      19.69      28.75       0.20      0.000       0.84
1:10pm            163        2.0        4.0       87.0       73.0      19.69      28.74       0.20      0.000       0.84
1:20pm            147        1.0        1.0       86.0       73.3      19.69      28.74       0.20      0.000       0.84
1:30pm            213        4.0        6.0       85.0       73.6      19.69      28.74       0.20      0.000       0.84
1:40pm            197        6.0        8.0       84.0       73.5      19.69      28.74       0.20      0.000       0.84
1:50pm            184        7.0        8.0       85.0       73.4      19.69      28.74       0.20      0.000       0.84
2:00pm            187        4.0        6.0       84.0       73.5      19.69      28.74       0.20      0.000       0.84
2:10pm            183        5.0        6.0       84.0       73.7      19.69      28.74       0.20      0.000       0.84
2:20pm            174        2.0        4.0       84.0       74.3      19.69      28.74       0.20      0.000       0.84
2:30pm            229        4.0        7.0       81.0       75.0      19.69      28.74       0.20      0.000       0.84
2:40pm            221        5.0        8.0       83.0       75.0      19.69      28.73       0.20      0.000       0.84
2:50pm            250        3.0        5.0       81.0       75.2      19.69      28.73       0.20      0.000       0.84
3:00pm            236        7.0        9.0       81.0       75.1      19.69      28.73       0.20      0.000       0.84
3:10pm            223        5.0        6.0       81.0       74.9      19.69      28.73       0.20      0.000       0.84
3:20pm            236        6.0        9.0       80.0       75.1      19.69      28.73       0.20      0.000       0.84
3:30pm            199        7.0        7.0       77.0       75.2      19.69      28.72       0.20      0.000       0.84
3:40pm            210        6.0        7.0       79.0       74.8      19.69      28.72       0.20      0.000       0.84
3:50pm            226        6.0        7.0       82.0       74.3      19.69      28.72       0.20      0.000       0.84
4:00pm            167        6.0        6.0       82.0       74.1      19.69      28.72       0.20      0.000       0.84
4:10pm            197        5.0        7.0       81.0       73.7      19.69      28.73       0.20      0.000       0.84
4:20pm            178        4.0        9.0       84.0       73.6      19.69      28.72       0.20      0.000       0.84
4:30pm            171        5.0        7.0       85.0       73.3      19.69      28.72       0.20      0.000       0.84
4:40pm            184        6.0        8.0       85.0       72.9      19.69      28.72       0.20      0.000       0.84
4:50pm            201        4.0        4.0       87.0       72.6      19.69      28.72       0.20      0.000       0.84
5:00pm            175        6.0        6.0       86.0       72.5      19.69      28.72       0.20      0.000       0.84
5:10pm            164        5.0        7.0       85.0       72.6      19.69      28.72       0.20      0.000       0.84
5:20pm            186        6.0        7.0       85.0       72.6      19.69      28.72       0.20      0.000       0.84
5:30pm            185        5.0        6.0       86.0       72.5      19.69      28.72       0.20      0.000       0.84
5:40pm            189        4.0        4.0       87.0       72.5      19.69      28.72       0.20      0.000       0.84
5:50pm            201        5.0        5.0       87.0       72.7      19.69      28.72       0.20      0.000       0.84
6:00pm            294        7.0        7.0       87.0       72.5      19.69      28.72       0.20      0.000       0.84
6:10pm            314        8.0        8.0       87.0       72.2      19.69      28.73       0.20      0.000       0.84
6:20pm            313        8.0        9.0       87.0       72.2      19.69      28.72       0.20      0.000       0.84
6:30pm            312       11.0       11.0       86.0       72.6      19.69      28.73       0.20      0.000       0.84
6:40pm            305        8.0       10.0       86.0       72.5      19.69      28.72       0.20      0.000       0.84
6:50pm            295        7.0        7.0       85.0       72.3      19.69      28.72       0.20      0.000       0.84
7:00pm            316        9.0        9.0       84.0       72.7      19.69      28.73       0.20      0.000       0.84
7:10pm            314        8.0        9.0       85.0       72.4      19.69      28.73       0.20      0.000       0.84
7:20pm            313        8.0        8.0       84.0       72.1      19.69      28.73       0.20      0.000       0.84

 


Yesterday's History

8/21/19
Time         Wind Dir   Wind Spd  Wind Gust   Humidity       Temp   Tot Rain   Barom SL   24HrRain   RainRate  MonthRain
                            mph        mph          %         F         in         in         in      in/hr         in
12:00am           202        6.0        7.0       82.0       71.7      19.49      28.73       0.00      0.000       0.64
12:10am           202        7.0       10.0       81.0       72.0      19.49      28.74       0.00      0.000       0.64
12:20am           202        8.0       11.0       82.0       72.0      19.49      28.74       0.00      0.000       0.64
12:30am           202        9.0       11.0       82.0       71.9      19.49      28.74       0.00      0.000       0.64
12:40am           202        9.0       11.0       81.0       72.2      19.49      28.73       0.00      0.000       0.64
12:50am           180       10.0       11.0       82.0       72.3      19.49      28.73       0.00      0.000       0.64
1:00am            180       10.0       12.0       82.0       72.1      19.49      28.74       0.00      0.000       0.64
1:10am            202        9.0       12.0       82.0       72.0      19.49      28.74       0.00      0.000       0.64
1:20am            202        9.0       13.0       83.0       71.7      19.49      28.74       0.00      0.000       0.64
1:30am            202        7.0        9.0       84.0       71.5      19.49      28.73       0.00      0.000       0.64
1:40am            202        8.0        9.0       85.0       71.2      19.49      28.73       0.00      0.000       0.64
1:50am            202        7.0        9.0       86.0       71.1      19.49      28.73       0.00      0.000       0.64
2:00am            202        8.0       10.0       86.0       70.8      19.49      28.73       0.00      0.000       0.64
2:10am            202       11.0       14.0       86.0       70.6      19.49      28.73       0.00      0.000       0.64
2:20am            202       10.0       12.0       87.0       70.5      19.49      28.73       0.00      0.000       0.64
2:30am            202        9.0       11.0       87.0       70.3      19.49      28.73       0.00      0.000       0.64
2:40am            202        9.0       12.0       88.0       70.1      19.49      28.73       0.00      0.000       0.64
2:50am            202        7.0        9.0       88.0       70.1      19.49      28.72       0.00      0.000       0.64
3:00am            180        8.0       11.0       88.0       70.1      19.49      28.72       0.00      0.000       0.64
3:10am            180        8.0       10.0       88.0       70.1      19.49      28.72       0.00      0.000       0.64
3:20am            180        7.0        9.0       89.0       70.1      19.49      28.72       0.00      0.000       0.64
3:30am            180        8.0       11.0       89.0       69.9      19.49      28.72       0.00      0.000       0.64
3:40am            180        7.0       10.0       90.0       69.5      19.49      28.72       0.00      0.000       0.64
3:50am            180        9.0       11.0       90.0       69.3      19.49      28.72       0.00      0.000       0.64
4:00am            180       10.0       12.0       91.0       69.0      19.49      28.71       0.00      0.000       0.64
4:10am            180        8.0        9.0       91.0       68.8      19.49      28.70       0.00      0.000       0.64
4:20am            180        8.0       11.0       92.0       68.5      19.49      28.70       0.00      0.000       0.64
4:30am            180        8.0       11.0       92.0       68.3      19.49      28.70       0.00      0.000       0.64
4:40am            202        7.0        9.0       92.0       68.1      19.49      28.70       0.00      0.000       0.64
4:50am            202        8.0       10.0       93.0       68.1      19.49      28.70       0.00      0.000       0.64
5:00am            202        8.0       10.0       92.0       68.3      19.49      28.70       0.00      0.000       0.64
5:10am            202        9.0       10.0       92.0       68.5      19.49      28.71       0.00      0.000       0.64
5:20am            202        7.0        9.0       92.0       68.6      19.49      28.71       0.00      0.000       0.64
5:30am            180       10.0       12.0       92.0       68.6      19.49      28.70       0.00      0.000       0.64
5:40am            202        8.0       10.0       92.0       68.5      19.49      28.70       0.00      0.000       0.64
5:50am            180        9.0       12.0       92.0       68.5      19.49      28.70       0.00      0.000       0.64
6:00am            174        9.0       11.0       92.0       68.4      19.49      28.70       0.00      0.000       0.64
6:10am            171        6.0        6.0       92.0       68.4      19.49      28.70       0.00      0.000       0.64
6:20am            143        8.0        9.0       92.0       68.4      19.49      28.69       0.00      0.000       0.64
6:30am            150        5.0        9.0       92.0       68.5      19.49      28.69       0.00      0.000       0.64
6:40am            172       11.0       12.0       92.0       68.6      19.49      28.69       0.00      0.000       0.64
6:50am            182        7.0       13.0       92.0       68.6      19.49      28.69       0.00      0.000       0.64
7:00am            156       12.0       12.0       92.0       68.7      19.49      28.68       0.00      0.000       0.64
7:10am            170        8.0        9.0       92.0       68.9      19.49      28.69       0.00      0.000       0.64
7:20am            180        8.0        9.0       92.0       69.0      19.49      28.69       0.00      0.000       0.64
7:30am            185        7.0       10.0       92.0       69.1      19.49      28.69       0.00      0.000       0.64
7:40am            236        6.0        8.0       92.0       69.1      19.49      28.70       0.00      0.000       0.64
7:50am            217        5.0        6.0       92.0       69.2      19.49      28.70       0.00      0.000       0.64
8:00am            215        4.0        7.0       92.0       69.2      19.49      28.71       0.00      0.000       0.64
8:10am            198        7.0        7.0       92.0       69.3      19.49      28.71       0.00      0.000       0.64
8:20am            210        5.0        6.0       93.0       69.3      19.49      28.71       0.00      0.000       0.64
8:30am            194        9.0       10.0       93.0       69.3      19.49      28.71       0.00      0.000       0.64
8:40am            197        4.0        7.0       93.0       69.3      19.49      28.71       0.00      0.000       0.64
8:50am            200        3.0        6.0       93.0       69.5      19.49      28.71       0.00      0.000       0.64
9:00am            175        4.0        7.0       93.0       69.7      19.49      28.71       0.00      0.000       0.64
9:10am            197        5.0        6.0       93.0       69.9      19.49      28.71       0.00      0.000       0.64
9:20am            200        5.0        6.0       92.0       70.1      19.49      28.71       0.00      0.000       0.64
9:30am            184        6.0        8.0       91.0       70.2      19.49      28.71       0.00      0.000       0.64
9:40am            196        7.0        7.0       90.0       70.5      19.49      28.71       0.00      0.000       0.64
9:50am            191        5.0        7.0       90.0       70.6      19.49      28.72       0.00      0.000       0.64
10:00am           198        5.0        5.0       89.0       70.9      19.49      28.72       0.00      0.000       0.64
10:10am           225        4.0        6.0       89.0       71.3      19.49      28.72       0.00      0.000       0.64
10:20am           219        6.0       10.0       88.0       71.7      19.49      28.73       0.00      0.000       0.64
10:30am           198        5.0        8.0       88.0       72.0      19.49      28.74       0.00      0.000       0.64
10:40am           167       11.0       12.0       87.0       72.9      19.49      28.73       0.00      0.000       0.64
10:50am           178        8.0       10.0       84.0       74.2      19.49      28.73       0.00      0.000       0.64
11:00am           173        9.0       10.0       83.0       74.6      19.49      28.73       0.00      0.000       0.64
11:10am           227        7.0        9.0       82.0       74.8      19.49      28.73       0.00      0.000       0.64
11:20am           226       14.0       14.0       80.0       74.4      19.49      28.73       0.00      0.000       0.64
11:30am           204       11.0       11.0       81.0       75.3      19.49      28.73       0.00      0.000       0.64
11:40am           178        7.0       10.0       77.0       76.6      19.49      28.73       0.00      0.000       0.64
11:50am           163       10.0       11.0       74.0       76.8      19.49      28.73       0.00      0.000       0.64
12:00pm           157       14.0       14.0       77.0       77.0      19.49      28.73       0.00      0.000       0.64
12:10pm           173        3.0        5.0       75.0       77.0      19.49      28.73       0.00      0.000       0.64
12:20pm           194       10.0       11.0       73.0       77.6      19.49      28.73       0.00      0.000       0.64
12:30pm           184        7.0       11.0       73.0       77.4      19.49      28.73       0.00      0.000       0.64
12:40pm           192        8.0       10.0       72.0       77.4      19.49      28.73       0.00      0.000       0.64
12:50pm           209        5.0        7.0       71.0       78.3      19.49      28.73       0.00      0.000       0.64
1:00pm            217       10.0       11.0       70.0       78.5      19.49      28.73       0.00      0.000       0.64
1:10pm            195        9.0       12.0       70.0       77.7      19.49      28.73       0.00      0.000       0.64
1:20pm            207        8.0       11.0       71.0       78.0      19.49      28.73       0.00      0.000       0.64
1:30pm            170        7.0       12.0       72.0       77.8      19.49      28.73       0.00      0.000       0.64
1:40pm            203       10.0       11.0       71.0       77.8      19.49      28.73       0.00      0.000       0.64
1:50pm            171        8.0       11.0       71.0       78.0      19.49      28.73       0.00      0.000       0.64
2:00pm            201        8.0       12.0       70.0       78.2      19.49      28.73       0.00      0.000       0.64
2:10pm            134        9.0       12.0       71.0       78.1      19.49      28.73       0.00      0.000       0.64
2:20pm            196        8.0       10.0       73.0       77.6      19.49      28.73       0.00      0.000       0.64
2:30pm            205        7.0        7.0       74.0       77.5      19.49      28.73       0.00      0.000       0.64
2:40pm            210        9.0       11.0       72.0       77.8      19.49      28.74       0.00      0.000       0.64
2:50pm            184        8.0       10.0       71.0       78.8      19.49      28.73       0.00      0.000       0.64
3:00pm            180       11.0       14.0       69.0       79.5      19.49      28.73       0.00      0.000       0.64
3:10pm            196        9.0       13.0       69.0       79.3      19.49      28.73       0.00      0.000       0.64
3:20pm            210       11.0       11.0       69.0       79.3      19.49      28.73       0.00      0.000       0.64
3:30pm            177        4.0        7.0       67.0       80.6      19.49      28.73       0.00      0.000       0.64
3:40pm            179        9.0       14.0       66.0       80.4      19.49      28.72       0.00      0.000       0.64
3:50pm            225       10.0       13.0       67.0       80.7      19.49      28.72       0.00      0.000       0.64
4:00pm            207        8.0       11.0       65.0       80.8      19.49      28.72       0.00      0.000       0.64
4:10pm            192       14.0       15.0       63.0       81.8      19.49      28.72       0.00      0.000       0.64
4:20pm            180       10.0       15.0       64.0       82.4      19.49      28.72       0.00      0.000       0.64
4:30pm            198       10.0       11.0       64.0       81.8      19.49      28.72       0.00      0.000       0.64
4:40pm            177       12.0       12.0       65.0       82.0      19.49      28.72       0.00      0.000       0.64
4:50pm            164       16.0       17.0       65.0       82.0      19.49      28.72       0.00      0.000       0.64
5:00pm            159        9.0       13.0       63.0       82.3      19.49      28.72       0.00      0.000       0.64
5:20pm            183       14.0       15.0       65.0       81.5      19.49      28.72       0.00      0.000       0.64
5:30pm            221       12.0       12.0       65.0       81.7      19.49      28.72       0.00      0.000       0.64
5:40pm            228       15.0       15.0       64.0       81.8      19.49      28.71       0.00      0.000       0.64
5:50pm            198       10.0       14.0       64.0       81.7      19.49      28.72       0.00      0.000       0.64
6:00pm            207        7.0       10.0       66.0       80.6      19.49      28.72       0.00      0.000       0.64
6:10pm            211       10.0       14.0       66.0       81.1      19.49      28.72       0.00      0.000       0.64
6:20pm            202       10.0       10.0       67.0       80.6      19.49      28.72       0.00      0.000       0.64
6:30pm            220        9.0       15.0       67.0       80.8      19.49      28.71       0.00      0.000       0.64
6:40pm            192        9.0       11.0       68.0       80.8      19.49      28.71       0.00      0.000       0.64
6:50pm            215        7.0       10.0       68.0       80.0      19.49      28.70       0.00      0.000       0.64
7:00pm            217        7.0        8.0       68.0       80.1      19.49      28.70       0.00      0.000       0.64
7:10pm            192        7.0        9.0       70.0       80.0      19.49      28.70       0.00      0.000       0.64
7:20pm            205        8.0        8.0       70.0       79.1      19.49      28.70       0.00      0.000       0.64
7:30pm            196        9.0       10.0       71.0       78.6      19.49      28.70       0.00      0.000       0.64
7:40pm            211        6.0        9.0       72.0       78.2      19.49      28.70       0.00      0.000       0.64
7:50pm            214        7.0        8.0       73.0       77.7      19.49      28.70       0.00      0.000       0.64
8:00pm            202        4.0        4.0       74.0       77.1      19.49      28.69       0.00      0.000       0.64
8:10pm            184        4.0        6.0       75.0       76.6      19.49      28.69       0.00      0.000       0.64
8:20pm            178        4.0        4.0       76.0       76.0      19.49      28.69       0.00      0.000       0.64
8:30pm            182        3.0        3.0       77.0       75.3      19.49      28.69       0.00      0.000       0.64
8:40pm            174        5.0        5.0       78.0       74.7      19.49      28.69       0.00      0.000       0.64
8:50pm            173        3.0        5.0       79.0       74.3      19.49      28.70       0.00      0.000       0.64
9:00pm            154        3.0        5.0       79.0       74.3      19.49      28.70       0.00      0.000       0.64
9:10pm            134        4.0        4.0       79.0       74.4      19.49      28.69       0.00      0.000       0.64
9:40pm            135        5.0        5.0       81.0       73.6      19.49      28.70       0.00      0.000       0.64
9:50pm            126        4.0        7.0       82.0       73.2      19.49      28.70       0.00      0.000       0.64
10:00pm           140        4.0        5.0       82.0       73.1      19.49      28.70       0.00      0.000       0.64
10:20pm           115        3.0        4.0       82.0       73.0      19.49      28.70       0.00      0.000       0.64
10:30pm           201        4.0        5.0       82.0       72.3      19.49      28.71       0.00      0.000       0.64
10:40pm           192        0.0        0.0       85.0       70.9      19.49      28.70       0.00      0.000       0.64
10:50pm           167        3.0        3.0       87.0       70.4      19.49      28.70       0.00      0.000       0.64
11:00pm           115        4.0        4.0       86.0       71.2      19.49      28.70       0.00      0.000       0.64
11:20pm           135        3.0        4.0       85.0       71.4      19.49      28.70       0.00      0.000       0.64
11:30pm           158        4.0        5.0       85.0       71.5      19.49      28.72       0.00      0.000       0.64
11:40pm           180        3.0        4.0       86.0       71.0      19.49      28.72       0.00      0.000       0.64
11:50pm           202        4.0        5.0       87.0       70.6      19.49      28.72       0.00      0.000       0.64


NOAA Yearly Report

                  YEARLY CLIMATOLOGICAL SUMMARY FOR 2019
                                        HEAT  COOL        
     MEAN                               DEG   DEG       WIND SPEED       DOM MEAN  MEAN
MON  TEMP  HIGH   DATE     LOW   DATE   DAYS  DAYS RAIN AVG  HI  DATE    DIR BAROM HUM
---------------------------------------------------------------------------------------
1    26.1  59.2   1/8/19  -8.5  1/30/19 1198    0  0.85   4  36  1/19/19  NE 28.95   83
2    31.7  58.3   2/7/19   4.0   2/1/19  933    0  3.43   8  56  2/24/19 SSW 28.94   84
3    36.0 158.0  3/14/19   5.4   3/5/19  898    0  2.72   9  46  3/10/19 SSW 28.97   75
4    51.8 158.0  4/14/19  20.8   4/1/19  411   16  4.10   9 254  4/18/19 ESE 28.74   69
5    62.8 158.0   5/1/19  34.4   5/1/19  171  103  5.78   8 207  5/17/19   S 28.73   78
6    69.5 158.0  6/27/19  46.9   6/3/19   48  182  6.64   8  87  6/27/19   S 28.71   73
7    75.9 158.0   7/2/19  54.2  7/25/19   13  340  2.33   6 152   7/2/19  SE 28.76   74
8    73.3  91.3  8/18/19  56.6  8/10/19   10  188  0.84   5 206  8/14/19   S 28.72   73
---------------------------------------------------------------------------------------
TOT  52.7 158.0  3/14/19  -8.5  1/30/19 3683  830 19.67   7 254  4/18/19 ESE 28.85   76

HEAT BASE: 65.0
COOL BASE: 65.0


NOAA Monthly Report

                  MONTHLY CLIMATOLOGICAL SUMMARY FOR 8/2019
                                        HEAT  COOL        
     MEAN                               DEG   DEG       WIND SPEED       DOM MEAN  MEAN
DAY  TEMP  HIGH   TIME     LOW   TIME   DAYS  DAYS RAIN AVG  HI  TIME    DIR BAROM HUM
---------------------------------------------------------------------------------------
1    72.0  81.3   4:26pm  63.5   6:30am    0    7  0.00   5  17  12:52pm   N 28.88   75
2    70.9  82.7   5:06pm  60.1   6:56am    1    7  0.00   5  15   3:44pm WNW 28.87   66
3    70.4  82.8   4:31pm  57.1   6:02am    2    7  0.00   4  16  12:48pm   W 28.82   66
4    72.9  87.4   5:32pm  58.2   4:42am    2   10  0.02   3  22   2:35pm   W 28.78   67
5    76.5  88.4   5:14pm  63.9   4:38am    0   11  0.00   4  20  12:58pm SSW 28.71   67
6    75.7  85.2  12:08pm  66.6  11:58pm    0   11  0.00   8  28   1:47pm   S 28.58   71
7    73.6  84.3   4:53pm  62.5   4:12am    0    9  0.02   5  22   2:44pm  SW 28.58   72
8    75.3  87.9   3:39pm  65.9   6:43am    0   10  0.08  10  38   9:17pm SSW 28.58   68
9    72.6  87.9   3:39pm  58.9   6:58am    1   16  0.00   8  38   9:17pm SSW 28.63   68
10   68.2  80.3   5:13pm  56.6   5:41am    2    5  0.00   5  17   1:34pm   W 28.76   65
11   71.6  83.8   4:14pm  57.5   2:15am    2    8  0.00   5  20  12:58pm ESE 28.82   62
12   74.0  85.5   1:57pm  64.4   3:25am    0    8  0.00   5  21   3:56pm ESE 28.69   69
13   74.4  82.7   4:45pm  69.3  11:35pm    0    9  0.17   7  24   1:46pm   W 28.55   86
14   71.8  82.9   1:00pm  65.2  11:59pm    0    7  0.28   3 206   9:46pm  NE 28.67   85
15   67.9  79.8   1:57pm  62.1   5:30am    0    2  0.00   3  15   2:01pm SSE 28.75   85
16   71.8  81.9   3:59pm  62.1   5:30am    0    7  0.00   4  16   2:43pm  SE 28.74   76
17   75.1  81.4   3:38pm  67.7   7:03am    0   10  0.00   5  16   2:57pm ESE 28.72   77
18   80.0  91.3   3:35pm  67.2  11:59pm    0   15  0.05   8  44  10:50pm  SE 28.69   69
19   74.8  86.6   4:15pm  64.3   7:12am    0   10  0.01   3  17  12:01am ESE 28.78   80
20   75.8  90.9   2:11pm  66.5   6:09am    0   10  0.00   5  93   3:40pm  SE 28.78   80
21   74.0  82.6   4:21pm  68.0   4:43am    0    9  0.00   8  19   4:35pm   S 28.71   81
22   72.0  75.3   2:49pm  67.7   8:55am    0    5  0.20   5  28   8:21am   S 28.72   87
---------------------------------------------------------------------------------------
TOT  73.3  91.3  8/18/19  56.6  8/10/19   10  193  0.84   5 206  8/14/19   S 28.72   73

HEAT BASE: 65.0
COOL BASE: 65.0